Latest Weather Observations for Mandora

IDW60801

Issued at 11:32 pm WST Monday 27 April 2015 (issued every 30 minutes, with the page automatically refreshed every 10 minutes)

About weather observations | Map of weather stations | Latest weather observations for WA | Other Formats
Station Details ID: 004019 Name: MANDORA Lat: -19.74 Lon: 120.84 Height: 7.5 m
Data from the previous 72 hours. | See also: Recent months at Mandora
Date/Time
WST
Temp
°C
App
Temp
°C
Dew
Point
Rel
Hum
%
Delta-T
°C
Wind Press
QNH
hPa
Press
MSL
hPa
Rain
since 9 am
mm
Dir
 
Spd
km/h
Gust
km/h
Spd
kts
Gust
kts
27/11:30pm 20.8 17.2 4.8 35 7.8 ESE 13 17 7 9 1016.7 - 0.0
27/11:00pm 21.0 17.9 5.4 36 7.7 ESE 11 17 6 9 1017.0 - 0.0
27/10:30pm 20.6 17.9 5.8 38 7.4 SE 9 13 5 7 1016.8 - 0.0
27/10:00pm 20.0 17.4 6.0 40 7.0 SE 9 11 5 6 1016.8 - 0.0
27/09:30pm 20.0 17.5 6.4 41 6.8 SE 9 11 5 6 1016.9 - 0.0
27/09:00pm 20.5 17.8 5.7 38 7.3 ESE 9 13 5 7 1016.6 1016.5 0.0
27/08:30pm 22.4 18.8 4.9 32 8.7 ESE 13 19 7 10 1016.5 - 0.0
27/08:00pm 22.6 19.3 4.6 31 8.9 SE 11 15 6 8 1016.2 - 0.0
27/07:30pm 22.3 19.5 5.3 33 8.5 SE 9 13 5 7 1015.9 - 0.0
27/07:00pm 22.7 20.0 5.6 33 8.6 SE 9 11 5 6 1015.6 - 0.0
27/06:30pm 24.4 21.6 5.2 29 9.7 SE 9 13 5 7 1015.3 - 0.0
27/06:00pm 26.8 23.8 4.0 23 11.4 SE 9 15 5 8 1015.0 1014.9 0.0
27/05:30pm 28.5 25.2 2.7 19 12.8 ESE 9 15 5 8 1014.6 - 0.0
27/05:00pm 29.7 25.0 1.2 16 13.9 ESE 15 24 8 13 1014.5 - 0.0
27/04:30pm 30.4 25.5 1.8 16 14.1 ESE 17 28 9 15 1014.0 - 0.0
27/04:00pm 31.0 25.8 2.3 16 14.3 SE 19 28 10 15 1014.0 - 0.0
27/03:30pm 31.1 25.5 1.4 15 14.6 SE 20 30 11 16 1013.8 - 0.0
27/03:00pm 32.1 26.9 2.2 15 15.0 SE 19 32 10 17 1013.8 1013.7 0.0
27/02:30pm 32.6 27.4 2.6 15 15.2 SE 19 33 10 18 1013.8 - 0.0
27/02:00pm 32.7 28.3 2.7 15 15.3 E 15 30 8 16 1013.9 - 0.0
27/01:30pm 32.1 26.9 2.2 15 15.0 ESE 19 33 10 18 1013.9 - 0.0
27/01:00pm 31.8 26.5 2.0 15 14.9 ESE 19 33 10 18 1014.4 - 0.0
27/12:30pm 32.0 26.5 2.1 15 15.0 E 20 39 11 21 1015.0 - 0.0
27/12:00pm 31.5 26.3 3.5 17 14.3 E 20 33 11 18 1015.5 1015.4 0.0
27/11:30am 29.7 24.5 3.6 19 13.2 E 20 39 11 21 1016.0 - 0.0
27/11:00am 29.3 23.5 2.5 18 13.3 E 22 35 12 19 1016.4 - 0.0
27/10:30am 30.2 24.7 4.0 19 13.4 E 22 39 12 21 1016.9 - 0.0
27/10:00am 28.9 23.2 3.0 19 12.9 E 22 44 12 24 1017.3 - 0.0
27/09:30am 28.5 23.7 4.7 22 12.2 E 19 32 10 17 1017.3 - 0.0
27/09:00am 27.0 22.7 5.3 25 11.1 E 17 32 9 17 1017.2 1017.1 0.0
27/08:30am 26.2 21.5 5.2 26 10.7 ESE 19 28 10 15 1017.1 - 0.0
27/08:00am 25.4 21.7 6.1 29 9.9 ESE 15 26 8 14 1016.7 - 0.0
27/07:30am 24.3 20.2 6.1 31 9.3 ESE 17 24 9 13 1016.3 - 0.0
27/07:00am 23.6 19.8 6.0 32 9.0 SE 15 20 8 11 1016.0 - 0.0
27/06:30am 23.4 19.6 5.8 32 8.9 SE 15 20 8 11 1015.7 - 0.0
27/06:00am 23.3 19.7 5.2 31 9.1 SE 13 17 7 9 1015.5 1015.4 0.0
27/05:30am 23.7 20.1 5.1 30 9.3 SE 13 20 7 11 1015.1 - 0.0
27/05:00am 24.0 20.0 4.9 29 9.6 SE 15 20 8 11 1014.7 - 0.0
27/04:30am 24.3 20.2 4.6 28 9.8 ESE 15 22 8 12 1014.4 - 0.0
27/04:00am 24.6 20.5 4.4 27 10.1 ESE 15 24 8 13 1014.3 - 0.0
27/03:30am 24.6 20.5 4.4 27 10.1 SE 15 22 8 12 1014.3 - 0.0
27/03:00am 24.7 20.6 4.5 27 10.1 SE 15 24 8 13 1014.6 1014.5 0.0
27/02:30am 24.6 20.6 4.9 28 9.9 SE 15 24 8 13 1014.7 - 0.0
27/02:00am 24.6 21.0 4.9 28 9.9 SSE 13 20 7 11 1015.0 - 0.0
27/01:30am 24.6 21.5 5.4 29 9.7 SSE 11 15 6 8 1015.1 - 0.0
27/01:00am 24.3 21.3 6.1 31 9.3 SSE 11 15 6 8 1015.2 - 0.0
27/12:30am 24.2 21.3 6.5 32 9.1 SE 11 17 6 9 1015.4 - 0.0
27/12:00am 24.5 21.6 6.3 31 9.4 ESE 11 15 6 8 1015.5 1015.4 0.0
 
Date/Time
WST
Temp
°C
App
Temp
°C
Dew
Point
Rel
Hum
%
Delta-T
°C
Wind Press
QNH
hPa
Press
MSL
hPa
Rain
since 9 am
mm
Dir
 
Spd
km/h
Gust
km/h
Spd
kts
Gust
kts
26/11:30pm 25.5 22.1 5.7 28 10.1 SE 13 20 7 11 1015.3 - 0.0
26/11:00pm 26.0 22.5 5.6 27 10.5 SE 13 20 7 11 1015.3 - 0.0
26/10:30pm 25.5 22.7 7.1 31 9.7 SSE 11 20 6 11 1015.5 - 0.0
26/10:00pm 25.5 23.6 8.9 35 9.0 SSE 9 13 5 7 1015.7 - 0.0
26/09:30pm 26.0 23.2 8.5 33 9.5 SSE 13 17 7 9 1015.9 - 0.0
26/09:00pm 25.2 24.2 11.0 41 8.0 SSE 7 11 4 6 1015.9 1015.8 0.0
26/08:30pm 25.5 24.4 10.5 39 8.4 SE 7 9 4 5 1015.7 - 0.0
26/08:00pm 25.9 24.4 10.5 38 8.6 SSE 9 11 5 6 1015.6 - 0.0
26/07:30pm 24.9 24.2 13.1 48 6.9 S 9 11 5 6 1015.4 - 0.0
26/07:00pm 25.5 24.5 12.4 44 7.5 S 9 9 5 5 1015.0 - 0.0
26/06:30pm 26.0 25.7 13.2 45 7.5 S 7 9 4 5 1014.9 - 0.0
26/06:00pm 25.7 27.8 16.3 56 5.8 CALM 0 0 0 0 1014.6 1014.5 0.0
26/05:30pm 26.8 28.5 15.2 49 7.0 CALM 0 0 0 0 1014.3 - 0.0
26/05:00pm 28.5 29.7 15.8 46 7.8 E 4 6 2 3 1014.0 - 0.0
26/04:30pm 29.3 28.2 9.9 30 10.9 ESE 6 9 3 5 1013.6 - 0.0
26/04:00pm 29.8 27.7 6.5 23 12.4 SE 7 13 4 7 1013.5 - 0.0
26/03:30pm 30.3 27.2 5.6 21 13.0 ESE 11 20 6 11 1013.4 - 0.0
26/03:00pm 30.6 26.6 5.1 20 13.3 ESE 15 20 8 11 1013.2 1013.1 0.0
26/02:30pm 30.8 26.9 5.3 20 13.4 ESE 15 24 8 13 1013.3 - 0.0
26/02:00pm 30.6 26.1 4.4 19 13.5 SE 17 24 9 13 1013.4 - 0.0
26/01:30pm 30.7 26.6 4.4 19 13.6 ESE 15 26 8 14 1013.6 - 0.0
26/01:00pm 30.9 26.3 3.8 18 13.9 E 17 30 9 16 1013.8 - 0.0
26/12:30pm 30.3 25.8 4.1 19 13.4 E 17 30 9 16 1014.0 - 0.0
26/12:00pm 30.3 25.6 3.4 18 13.6 E 17 30 9 16 1014.3 1014.2 0.0
26/11:30am 31.0 25.3 3.1 17 14.1 E 22 33 12 18 1014.6 - 0.0
26/11:00am 30.4 25.3 4.2 19 13.5 E 20 35 11 19 1015.0 - 0.0
26/10:30am 28.9 22.8 3.0 19 12.9 ESE 24 44 13 24 1015.5 - 0.0
26/10:00am 27.3 21.9 2.4 20 12.2 ESE 20 37 11 20 1016.1 - 0.0
26/09:30am 27.2 21.1 3.0 21 11.9 ESE 24 39 13 21 1016.3 - 0.0
26/09:00am 25.4 19.8 3.4 24 10.8 ESE 22 37 12 20 1016.4 1016.3 0.0
26/08:30am 24.4 19.1 3.1 25 10.3 ESE 20 35 11 19 1016.3 - 0.0
26/08:00am 23.6 17.1 2.4 25 10.1 SE 26 39 14 21 1015.7 - 0.0
26/07:30am 23.2 17.6 3.2 27 9.6 SE 22 39 12 21 1015.8 - 0.0
26/07:00am 22.8 17.2 3.4 28 9.4 SE 22 32 12 17 1015.6 - 0.0
26/06:30am 22.9 17.3 3.4 28 9.4 SE 22 39 12 21 1015.1 - 0.0
26/06:00am 23.0 17.8 3.5 28 9.4 SE 20 32 11 17 1014.9 1014.8 0.0
26/05:30am 23.4 18.5 3.9 28 9.5 SE 19 33 10 18 1014.6 - 0.0
26/05:00am 23.8 17.9 3.7 27 9.8 SE 24 33 13 18 1014.3 - 0.0
26/04:30am 23.9 18.7 3.8 27 9.8 SE 20 33 11 18 1014.1 - 0.0
26/04:00am 24.0 18.6 4.4 28 9.7 ESE 22 33 12 18 1014.1 - 0.0
26/03:30am 24.6 19.2 4.4 27 10.1 SE 22 33 12 18 1014.0 - 0.0
26/03:00am 25.1 20.2 4.3 26 10.4 SE 19 30 10 16 1013.9 1013.8 0.0
26/02:30am 25.5 20.6 4.0 25 10.7 SE 19 32 10 17 1013.7 - 0.0
26/02:00am 25.9 20.4 3.8 24 11.0 SE 22 35 12 19 1013.7 - 0.0
26/01:30am 26.1 20.7 4.6 25 10.8 SE 22 33 12 18 1013.7 - 0.0
26/01:00am 26.1 20.8 5.1 26 10.7 SE 22 33 12 18 1014.0 - 0.0
26/12:30am 26.0 21.4 5.6 27 10.5 SE 19 30 10 16 1014.4 - 0.0
26/12:00am 26.0 21.9 6.1 28 10.3 SE 17 26 9 14 1014.6 1014.5 0.0
 
Date/Time
WST
Temp
°C
App
Temp
°C
Dew
Point
Rel
Hum
%
Delta-T
°C
Wind Press
QNH
hPa
Press
MSL
hPa
Rain
since 9 am
mm
Dir
 
Spd
km/h
Gust
km/h
Spd
kts
Gust
kts
25/11:30pm 25.6 22.2 7.7 32 9.5 SSE 15 22 8 12 1014.6 - 0.0
25/11:00pm 25.3 22.4 8.3 34 9.1 SSE 13 22 7 12 1014.6 - 0.0
25/10:30pm 25.4 22.7 8.8 35 9.0 SSE 13 20 7 11 1014.7 - 0.0
25/10:00pm 25.6 23.0 9.4 36 8.9 SSE 13 20 7 11 1014.8 - 0.0
25/09:30pm 25.5 23.5 10.1 38 8.5 SSE 11 17 6 9 1014.9 - 0.0
25/09:00pm 25.7 23.7 10.3 38 8.6 SE 11 13 6 7 1014.9 1014.8 0.0
25/08:30pm 25.5 24.2 11.3 41 8.0 SE 9 13 5 7 1015.0 - 0.0
25/08:00pm 24.8 24.2 12.4 46 7.1 SE 7 11 4 6 1014.6 - 0.0
25/07:30pm 25.0 24.4 12.2 44 7.3 SSE 7 11 4 6 1014.3 - 0.0
25/07:00pm 25.1 25.3 14.6 52 6.3 ESE 7 9 4 5 1014.1 - 0.0
25/06:30pm 25.6 24.8 11.7 42 7.9 SE 7 9 4 5 1013.8 - 0.0
25/06:00pm 26.2 25.3 11.5 40 8.4 SE 7 9 4 5 1013.4 1013.3 0.0
25/05:30pm 27.1 26.2 11.2 37 9.0 ESE 7 9 4 5 1013.2 - 0.0
25/05:00pm 28.2 26.8 9.5 31 10.4 SE 7 11 4 6 1012.8 - 0.0
25/04:30pm 28.5 26.8 9.7 31 10.5 SSE 9 15 5 8 1012.4 - 0.0
25/04:00pm 28.6 26.4 9.3 30 10.7 SSE 11 15 6 8 1012.3 - 0.0
25/03:30pm 28.9 26.2 9.1 29 11.0 SSE 13 19 7 10 1012.2 - 0.0
25/03:00pm 28.8 26.0 8.5 28 11.1 SSE 13 22 7 12 1012.2 1012.1 0.0
25/02:30pm 29.1 26.3 8.7 28 11.2 SE 13 20 7 11 1012.2 - 0.0
25/02:00pm 28.9 25.7 8.6 28 11.2 SE 15 24 8 13 1012.1 - 0.0
25/01:30pm 28.7 24.2 8.4 28 11.1 SE 22 33 12 18 1012.3 - 0.0
25/01:00pm 28.1 24.0 7.9 28 10.9 SE 19 30 10 16 1012.6 - 0.0
25/12:30pm 27.6 23.3 8.0 29 10.6 ESE 20 35 11 19 1013.0 - 0.0
25/12:00pm 27.3 22.1 7.2 28 10.7 ESE 24 37 13 20 1013.3 1013.2 0.0
25/11:30am 26.7 21.2 7.7 30 10.2 ESE 26 41 14 22 1013.7 - 0.0
25/11:00am 26.5 21.4 7.5 30 10.1 ESE 24 39 13 21 1014.2 - 0.0
25/10:30am 25.8 20.6 7.4 31 9.7 SE 24 39 13 21 1014.3 - 0.0
25/10:00am 25.2 19.8 7.8 33 9.2 SE 26 43 14 23 1014.5 - 0.0
25/09:30am 24.3 18.8 7.4 34 8.9 SE 26 39 14 21 1014.9 - 0.0
25/09:00am 24.0 18.5 7.6 35 8.6 SE 26 43 14 23 1014.9 1014.8 0.0
25/08:30am 23.7 18.0 6.9 34 8.7 SE 26 35 14 19 1014.8 - 0.0
25/08:00am 23.4 18.2 7.1 35 8.5 SE 24 35 13 19 1014.7 - 0.0
25/07:30am 23.2 18.3 6.9 35 8.4 SE 22 39 12 21 1014.3 - 0.0
25/07:00am 23.4 18.1 6.7 34 8.6 SE 24 35 13 19 1013.9 - 0.0
25/06:30am 23.4 18.2 7.1 35 8.5 SE 24 39 13 21 1013.2 - 0.0
25/06:00am 23.1 18.7 9.1 41 7.5 SE 22 35 12 19 1012.8 1012.7 0.0
25/05:30am 23.1 19.7 11.2 47 6.6 SE 20 33 11 18 1012.6 - 0.0
25/05:00am 23.5 20.2 11.5 47 6.7 SE 20 35 11 19 1012.4 - 0.0
25/04:30am 23.8 20.8 12.1 48 6.6 SE 19 28 10 15 1012.6 - 0.0
25/04:00am 23.7 21.7 12.7 50 6.3 SSE 15 22 8 12 1012.5 - 0.0
25/03:30am 23.1 22.2 13.6 55 5.5 SSE 11 17 6 9 1012.7 - 0.0
25/03:00am 23.2 22.6 13.4 54 5.7 SE 9 13 5 7 1012.7 1012.6 0.0
25/02:30am 23.1 22.2 13.6 55 5.5 SE 11 13 6 7 1012.8 - 0.0
25/02:00am 22.6 21.9 14.2 59 4.9 ESE 11 15 6 8 1012.8 - 0.0
25/01:30am 21.4 22.1 16.1 72 3.2 E 7 11 4 6 1012.9 - 0.0
25/01:00am 22.3 22.9 15.2 64 4.2 ENE 6 11 3 6 1013.4 - 0.0
25/12:30am 22.8 22.8 14.1 58 5.1 NNE 7 11 4 6 1013.4 - 0.0
25/12:00am 23.5 23.0 12.8 51 6.1 ESE 7 9 4 5 1013.6 1013.5 0.0

Other Formats:

Comma delimited format used in spreadsheet applications
http://www.bom.gov.au/fwo/IDW60801/IDW60801.94200.axf

JavaScript Object Notation format (JSON) in row-major order
http://www.bom.gov.au/fwo/IDW60801/IDW60801.94200.json